createdAt,value
2019-02-23T00:00:02.844Z,86.37
2019-02-23T00:05:07.623Z,86.65
2019-02-23T00:10:07.724Z,86.95
2019-02-23T00:15:04.989Z,87.41
2019-02-23T00:20:05.311Z,87.5
2019-02-23T00:25:08.427Z,87.14
2019-02-23T00:30:03.342Z,86.96
2019-02-23T00:35:08.838Z,87.08
2019-02-23T00:40:07.986Z,87.22
2019-02-23T00:45:03.107Z,87.24
2019-02-23T00:50:08.842Z,87.52
2019-02-23T00:55:08.050Z,87.81
2019-02-23T01:00:03.183Z,88.12
2019-02-23T01:05:07.648Z,88.25
2019-02-23T01:10:07.081Z,88.59
2019-02-23T01:15:04.687Z,88.91
2019-02-23T01:20:05.609Z,89.09
2019-02-23T01:25:05.923Z,89.27
2019-02-23T01:30:03.039Z,89.47
2019-02-23T01:35:05.013Z,89.95
2019-02-23T01:40:05.775Z,89.86
2019-02-23T01:45:04.786Z,90.15
2019-02-23T01:50:07.183Z,90.59
2019-02-23T01:55:07.035Z,90.9
2019-02-23T02:00:05.228Z,90.9
2019-02-23T02:05:06.334Z,91.24
2019-02-23T02:10:03.581Z,91.47
2019-02-23T02:15:06.675Z,91.64
2019-02-23T02:20:14.425Z,91.87
2019-02-23T02:25:07.539Z,92.13
2019-02-23T02:30:11.430Z,92.2
2019-02-23T02:35:07.744Z,92.48
2019-02-23T02:40:06.756Z,92.8
2019-02-23T02:45:04.268Z,92.97
2019-02-23T02:50:05.993Z,93.07
2019-02-23T02:55:06.965Z,93.09
2019-02-23T03:00:03.074Z,93.26
2019-02-23T03:05:06.378Z,93.32
2019-02-23T03:10:06.724Z,93.43
2019-02-23T03:15:04.306Z,93.49
2019-02-23T03:20:11.620Z,93.58
2019-02-23T03:25:08.958Z,93.61
2019-02-23T03:30:11.360Z,93.76
2019-02-23T03:35:11.468Z,93.79
2019-02-23T03:40:09.213Z,93.67
2019-02-23T03:45:04.716Z,93.48
2019-02-23T03:50:11.414Z,93.1
2019-02-23T03:55:12.595Z,93
2019-02-23T04:00:08.022Z,92.91
2019-02-23T04:05:09.086Z,92.55
2019-02-23T04:10:05.559Z,92.25
2019-02-23T04:15:07.185Z,92.08
2019-02-23T04:20:07.776Z,91.87
2019-02-23T04:25:08.231Z,91.7
2019-02-23T04:30:02.752Z,91.33
2019-02-23T04:35:08.203Z,91.23
2019-02-23T04:40:07.383Z,90.75
2019-02-23T04:45:02.868Z,90.93
2019-02-23T04:50:07.986Z,91.11
2019-02-23T04:55:07.330Z,91.05
2019-02-23T05:00:02.940Z,90.66
2019-02-23T05:05:06.994Z,90.59
2019-02-23T05:10:02.800Z,90.37
2019-02-23T05:15:08.343Z,90.23
2019-02-23T05:20:07.520Z,89.49
2019-02-23T05:25:05.540Z,89.35
2019-02-23T05:30:03.029Z,88.97
2019-02-23T05:35:05.201Z,88.97
2019-02-23T05:40:05.666Z,88.94
2019-02-23T05:45:03.107Z,89.01
2019-02-23T05:50:05.891Z,88.92
2019-02-23T05:55:06.064Z,89.04
2019-02-23T06:00:02.623Z,88.75
2019-02-23T06:05:06.486Z,88.72
2019-02-23T06:10:07.741Z,88.49
2019-02-23T06:15:03.771Z,87.79
2019-02-23T06:20:06.907Z,88.06
2019-02-23T06:25:07.382Z,87.44
2019-02-23T06:30:03.793Z,87.69
2019-02-23T06:35:05.893Z,87.43
2019-02-23T06:40:07.687Z,87.11
2019-02-23T06:45:03.674Z,86.98
2019-02-23T06:50:05.770Z,86.85
2019-02-23T06:55:07.726Z,86.99
2019-02-23T07:00:03.755Z,86.82
2019-02-23T07:05:07.123Z,86.74
2019-02-23T07:10:08.951Z,86.53
2019-02-23T07:15:05.565Z,86.4
2019-02-23T07:20:09.314Z,86.37
2019-02-23T07:25:08.027Z,86.31
2019-02-23T07:30:03.645Z,86.24
2019-02-23T07:35:08.031Z,86.39
2019-02-23T07:40:07.361Z,85.92
2019-02-23T07:45:04.023Z,85.62
2019-02-23T07:50:07.208Z,85.63
2019-02-23T07:55:06.551Z,85.07
2019-02-23T08:00:04.919Z,84.95
2019-02-23T08:05:05.910Z,84.7
2019-02-23T08:10:09.329Z,84.5
2019-02-23T08:15:04.312Z,84.47
2019-02-23T08:20:06.873Z,84.29
2019-02-23T08:25:10.296Z,84.31
2019-02-23T08:30:03.959Z,83.98
2019-02-23T08:35:09.328Z,83.59
2019-02-23T08:40:08.289Z,83.21
2019-02-23T08:45:03.969Z,83.21
2019-02-23T08:50:07.221Z,83.38
2019-02-23T08:55:05.897Z,83.18
2019-02-23T09:00:04.408Z,82.73
2019-02-23T09:05:06.095Z,82.36
2019-02-23T09:10:08.089Z,81.95
2019-02-23T09:15:03.612Z,81.64
2019-02-23T09:20:06.670Z,81.09
2019-02-23T09:25:07.738Z,79.97
2019-02-23T09:30:03.203Z,79.69
2019-02-23T09:35:06.877Z,80.15
2019-02-23T09:40:09.232Z,79.33
2019-02-23T09:45:02.774Z,79.32
2019-02-23T09:50:09.033Z,78.28
2019-02-23T09:55:08.960Z,78.3
2019-02-23T10:00:02.523Z,78
2019-02-23T10:05:09.798Z,77.65
2019-02-23T10:10:07.510Z,77.78
2019-02-23T10:15:04.652Z,76.65
2019-02-23T10:20:07.208Z,77.35
2019-02-23T10:25:07.848Z,76.71
2019-02-23T10:30:03.299Z,75.58
2019-02-23T10:35:07.633Z,75.6
2019-02-23T10:40:06.256Z,74.52
2019-02-23T10:45:03.081Z,74.08
2019-02-23T10:50:05.572Z,73.3
2019-02-23T10:55:07.267Z,72.01
2019-02-23T11:00:02.840Z,72.27
2019-02-23T11:05:07.240Z,71.69
2019-02-23T11:10:09.051Z,71.43
2019-02-23T11:15:02.839Z,70.74
2019-02-23T11:20:09.434Z,70.03
2019-02-23T11:25:09.981Z,71.5
2019-02-23T11:30:02.461Z,68.31
2019-02-23T11:35:08.384Z,68.14
2019-02-23T11:40:07.644Z,67.61
2019-02-23T11:45:03.084Z,66.78
2019-02-23T11:50:05.620Z,65.15
2019-02-23T11:55:04.328Z,65.99
2019-02-23T12:00:02.916Z,66.05
2019-02-23T12:05:03.878Z,65.53
2019-02-23T12:10:05.302Z,65.31
2019-02-23T12:15:02.876Z,63.77
2019-02-23T12:20:04.538Z,62.36
2019-02-23T12:25:04.655Z,61.8
2019-02-23T12:30:03.106Z,60.48
2019-02-23T12:35:03.950Z,60.47
2019-02-23T12:40:08.850Z,62.46
2019-02-23T12:45:04.393Z,60.05
2019-02-23T12:50:06.828Z,60
2019-02-23T12:55:09.541Z,59.93
2019-02-23T13:00:05.127Z,58.85
2019-02-23T13:05:09.365Z,58.59
2019-02-23T13:10:07.610Z,56.62
2019-02-23T13:15:04.128Z,56.54
2019-02-23T13:20:07.153Z,55.63
2019-02-23T13:25:06.972Z,55.64
2019-02-23T13:30:03.636Z,55.66
2019-02-23T13:35:06.910Z,54.96
2019-02-23T13:40:07.619Z,54.67
2019-02-23T13:45:04.297Z,54.33
2019-02-23T13:50:05.951Z,54.99
2019-02-23T13:55:06.654Z,54.99
2019-02-23T14:00:04.154Z,55.29
2019-02-23T14:05:06.615Z,56.66
2019-02-23T14:10:07.409Z,56.64
2019-02-23T14:15:04.048Z,56.34
2019-02-23T14:20:06.962Z,56.02
2019-02-23T14:25:10.025Z,55.63
2019-02-23T14:30:05.377Z,55.47
2019-02-23T14:35:09.310Z,55.61
2019-02-23T14:40:07.237Z,56.21
2019-02-23T14:45:03.920Z,55.9
2019-02-23T14:50:09.015Z,55.08
2019-02-23T14:55:07.051Z,54.71
2019-02-23T15:00:03.608Z,54.71
2019-02-23T15:05:07.764Z,54.66
2019-02-23T15:10:09.001Z,54.63
2019-02-23T15:15:03.611Z,55.08
2019-02-23T15:20:06.453Z,55.65
2019-02-23T15:25:15.413Z,54.54
2019-02-23T15:30:03.938Z,54.01
2019-02-23T15:35:06.362Z,53.51
2019-02-23T15:40:09.376Z,54.5
2019-02-23T15:45:06.158Z,54.63
2019-02-23T15:50:16.250Z,53.96
2019-02-23T15:55:07.256Z,54.17
2019-02-23T16:00:02.771Z,53.7
2019-02-23T16:05:08.067Z,54.45
2019-02-23T16:10:06.650Z,54.52
2019-02-23T16:15:04.183Z,55.21
2019-02-23T16:20:06.046Z,54.99
2019-02-23T16:25:07.653Z,55.49
2019-02-23T16:30:03.167Z,57.92
2019-02-23T16:35:06.109Z,57.82
2019-02-23T16:40:06.694Z,56.06
2019-02-23T16:45:03.219Z,56.96
2019-02-23T16:50:05.948Z,55.56
2019-02-23T16:55:06.618Z,58.14
2019-02-23T17:00:03.124Z,59.49
2019-02-23T17:05:06.681Z,60.63
2019-02-23T17:10:07.838Z,61.65
2019-02-23T17:15:03.302Z,62.49
2019-02-23T17:20:06.806Z,63.04
2019-02-23T17:25:07.663Z,63.84
2019-02-23T17:30:03.206Z,64.01
2019-02-23T17:35:06.487Z,63.55
2019-02-23T17:40:06.762Z,65.1
2019-02-23T17:45:03.289Z,65.74
2019-02-23T17:50:05.517Z,64.42
2019-02-23T17:55:04.226Z,61.14
2019-02-23T18:00:02.800Z,59.69
2019-02-23T18:05:04.601Z,59.21
2019-02-23T18:10:07.130Z,59.24
2019-02-23T18:15:03.861Z,59.3
2019-02-23T18:20:07.070Z,59.72
2019-02-23T18:25:07.731Z,59.85
2019-02-23T18:30:13.971Z,60.05
2019-02-23T18:35:07.379Z,60.23
2019-02-23T18:40:06.985Z,60.27
2019-02-23T18:45:03.585Z,60.3
2019-02-23T18:50:06.141Z,60.46
2019-02-23T18:55:06.749Z,60.74
2019-02-23T19:00:04.217Z,60.65
2019-02-23T19:05:06.005Z,60.77
2019-02-23T19:10:06.959Z,60.78
2019-02-23T19:15:03.603Z,60.75
2019-02-23T19:20:06.094Z,60.93
2019-02-23T19:25:07.310Z,61.13
2019-02-23T19:30:03.766Z,61.26
2019-02-23T19:35:06.451Z,61.4
2019-02-23T19:40:06.951Z,61.22
2019-02-23T19:45:03.684Z,61.17
2019-02-23T19:50:06.344Z,61.04
2019-02-23T19:55:06.964Z,61.22
2019-02-23T20:00:03.627Z,61.02
2019-02-23T20:05:06.730Z,60.52
2019-02-23T20:10:06.699Z,60.65
2019-02-23T20:15:04.333Z,60.85
2019-02-23T20:20:06.076Z,60.9
2019-02-23T20:25:06.961Z,60.6
2019-02-23T20:30:03.700Z,60.83
2019-02-23T20:35:06.527Z,61.07
2019-02-23T20:40:07.055Z,61.18
2019-02-23T20:45:03.667Z,61.29
2019-02-23T20:50:06.407Z,61.8
2019-02-23T20:55:06.989Z,61.82
2019-02-23T21:00:03.742Z,61.91
2019-02-23T21:05:06.331Z,62.34
2019-02-23T21:10:06.860Z,62.14
2019-02-23T21:15:03.663Z,62.07
2019-02-23T21:20:06.962Z,61.87
2019-02-23T21:25:07.213Z,61.7
2019-02-23T21:30:03.228Z,61.11
2019-02-23T21:35:06.579Z,61.05
2019-02-23T21:40:07.167Z,61.13
2019-02-23T21:45:02.696Z,61.18
2019-02-23T21:50:06.257Z,60.76
2019-02-23T21:55:06.918Z,60.82
2019-02-23T22:00:02.613Z,61.23
2019-02-23T22:05:15.588Z,61.57
2019-02-23T22:10:07.094Z,61.9
2019-02-23T22:15:02.665Z,62.2
2019-02-23T22:20:06.371Z,61.9
2019-02-23T22:25:07.309Z,61.73
2019-02-23T22:30:02.809Z,61.63
2019-02-23T22:35:06.466Z,61.75
2019-02-23T22:40:07.463Z,63.12
2019-02-23T22:45:02.968Z,63.29
2019-02-23T22:50:06.351Z,62.81
2019-02-23T22:55:08.068Z,62.52
2019-02-23T23:00:02.640Z,62.1
2019-02-23T23:05:07.104Z,62.23
2019-02-23T23:10:08.361Z,61.86
2019-02-23T23:15:02.868Z,61.56
2019-02-23T23:20:07.285Z,61.33
2019-02-23T23:25:08.048Z,61.56
2019-02-23T23:30:02.598Z,61.89
2019-02-23T23:35:05.818Z,61.92
2019-02-23T23:40:07.759Z,61.78
2019-02-23T23:45:03.219Z,62.37
2019-02-23T23:50:05.010Z,61.86
2019-02-23T23:55:04.994Z,61.81
